sensor_id;sensor_type;location;lat;lon;timestamp;P1;durP1;ratioP1;P2;durP2;ratioP2
37843;SDS011;23930;57.632;18.292;2022-09-03T00:02:21;1.70;;;1.60;;
37843;SDS011;23930;57.632;18.292;2022-09-03T00:10:18;1.43;;;1.07;;
37843;SDS011;23930;57.632;18.292;2022-09-03T00:12:51;2.17;;;0.85;;
37843;SDS011;23930;57.632;18.292;2022-09-03T00:15:22;1.98;;;0.70;;
37843;SDS011;23930;57.632;18.292;2022-09-03T00:17:51;3.15;;;1.13;;
37843;SDS011;23930;57.632;18.292;2022-09-03T00:20:47;1.85;;;1.00;;
37843;SDS011;23930;57.632;18.292;2022-09-03T00:23:21;1.05;;;0.80;;
37843;SDS011;23930;57.632;18.292;2022-09-03T00:26:09;0.70;;;0.70;;
37843;SDS011;23930;57.632;18.292;2022-09-03T00:31:29;1.48;;;0.68;;
37843;SDS011;23930;57.632;18.292;2022-09-03T00:34:25;0.80;;;0.70;;
37843;SDS011;23930;57.632;18.292;2022-09-03T00:36:52;2.07;;;1.27;;
37843;SDS011;23930;57.632;18.292;2022-09-03T00:39:21;1.60;;;1.48;;
37843;SDS011;23930;57.632;18.292;2022-09-03T00:44:51;2.05;;;1.35;;
37843;SDS011;23930;57.632;18.292;2022-09-03T00:53:16;0.73;;;0.63;;
37843;SDS011;23930;57.632;18.292;2022-09-03T00:56:05;1.15;;;0.88;;
37843;SDS011;23930;57.632;18.292;2022-09-03T00:58:43;1.13;;;0.80;;
37843;SDS011;23930;57.632;18.292;2022-09-03T01:10:10;2.25;;;0.80;;
37843;SDS011;23930;57.632;18.292;2022-09-03T01:13:05;0.85;;;0.65;;
37843;SDS011;23930;57.632;18.292;2022-09-03T01:24:24;2.00;;;0.63;;
37843;SDS011;23930;57.632;18.292;2022-09-03T01:27:29;0.50;;;0.50;;
37843;SDS011;23930;57.632;18.292;2022-09-03T01:30:14;2.05;;;1.02;;
37843;SDS011;23930;57.632;18.292;2022-09-03T01:35:28;1.00;;;0.70;;
37843;SDS011;23930;57.632;18.292;2022-09-03T01:41:34;0.45;;;0.45;;
37843;SDS011;23930;57.632;18.292;2022-09-03T01:50:12;1.80;;;0.65;;
37843;SDS011;23930;57.632;18.292;2022-09-03T01:58:48;0.82;;;0.73;;
37843;SDS011;23930;57.632;18.292;2022-09-03T02:01:26;0.98;;;0.82;;
37843;SDS011;23930;57.632;18.292;2022-09-03T02:03:58;1.10;;;0.68;;
37843;SDS011;23930;57.632;18.292;2022-09-03T02:06:26;0.70;;;0.68;;
37843;SDS011;23930;57.632;18.292;2022-09-03T02:08:57;1.45;;;1.02;;
37843;SDS011;23930;57.632;18.292;2022-09-03T02:11:24;1.10;;;0.70;;
37843;SDS011;23930;57.632;18.292;2022-09-03T02:13:52;0.80;;;0.80;;
37843;SDS011;23930;57.632;18.292;2022-09-03T02:16:22;0.43;;;0.43;;
37843;SDS011;23930;57.632;18.292;2022-09-03T02:18:55;1.25;;;0.70;;
37843;SDS011;23930;57.632;18.292;2022-09-03T02:21:26;0.50;;;0.50;;
37843;SDS011;23930;57.632;18.292;2022-09-03T02:23:59;0.90;;;0.70;;
37843;SDS011;23930;57.632;18.292;2022-09-03T02:26:28;1.17;;;0.98;;
37843;SDS011;23930;57.632;18.292;2022-09-03T02:28:55;0.70;;;0.70;;
37843;SDS011;23930;57.632;18.292;2022-09-03T02:31:23;0.50;;;0.50;;
37843;SDS011;23930;57.632;18.292;2022-09-03T02:33:50;0.80;;;0.70;;
37843;SDS011;23930;57.632;18.292;2022-09-03T02:36:18;7.25;;;1.60;;
37843;SDS011;23930;57.632;18.292;2022-09-03T02:38:53;0.43;;;0.43;;
37843;SDS011;23930;57.632;18.292;2022-09-03T02:41:20;1.98;;;0.70;;
37843;SDS011;23930;57.632;18.292;2022-09-03T02:43:51;0.52;;;0.52;;
37843;SDS011;23930;57.632;18.292;2022-09-03T02:46:35;3.00;;;0.70;;
37843;SDS011;23930;57.632;18.292;2022-09-03T02:49:05;0.65;;;0.57;;
37843;SDS011;23930;57.632;18.292;2022-09-03T02:51:33;0.80;;;0.70;;
37843;SDS011;23930;57.632;18.292;2022-09-03T02:54:08;0.50;;;0.50;;
37843;SDS011;23930;57.632;18.292;2022-09-03T02:56:36;0.50;;;0.50;;
37843;SDS011;23930;57.632;18.292;2022-09-03T02:59:03;0.70;;;0.70;;
37843;SDS011;23930;57.632;18.292;2022-09-03T03:01:31;1.83;;;1.25;;
37843;SDS011;23930;57.632;18.292;2022-09-03T03:03:59;0.47;;;0.47;;
37843;SDS011;23930;57.632;18.292;2022-09-03T03:06:26;0.75;;;0.60;;
37843;SDS011;23930;57.632;18.292;2022-09-03T03:08:53;0.65;;;0.65;;
37843;SDS011;23930;57.632;18.292;2022-09-03T03:11:21;0.88;;;0.80;;
37843;SDS011;23930;57.632;18.292;2022-09-03T03:13:51;0.73;;;0.73;;
37843;SDS011;23930;57.632;18.292;2022-09-03T03:16:18;1.45;;;1.35;;
37843;SDS011;23930;57.632;18.292;2022-09-03T03:18:45;1.33;;;0.75;;
37843;SDS011;23930;57.632;18.292;2022-09-03T03:21:13;0.95;;;0.70;;
37843;SDS011;23930;57.632;18.292;2022-09-03T03:23:41;0.70;;;0.70;;
37843;SDS011;23930;57.632;18.292;2022-09-03T03:26:10;1.10;;;0.57;;
37843;SDS011;23930;57.632;18.292;2022-09-03T03:28:38;0.83;;;0.70;;
37843;SDS011;23930;57.632;18.292;2022-09-03T03:31:11;0.80;;;0.75;;
37843;SDS011;23930;57.632;18.292;2022-09-03T03:33:40;0.98;;;0.88;;
37843;SDS011;23930;57.632;18.292;2022-09-03T03:38:39;0.40;;;0.40;;
37843;SDS011;23930;57.632;18.292;2022-09-03T03:43:42;1.02;;;0.80;;
37843;SDS011;23930;57.632;18.292;2022-09-03T03:46:10;2.83;;;0.80;;
37843;SDS011;23930;57.632;18.292;2022-09-03T03:48:37;0.57;;;0.50;;
37843;SDS011;23930;57.632;18.292;2022-09-03T03:51:05;1.58;;;0.80;;
37843;SDS011;23930;57.632;18.292;2022-09-03T03:53:35;1.88;;;0.75;;
37843;SDS011;23930;57.632;18.292;2022-09-03T03:58:33;1.75;;;0.70;;
37843;SDS011;23930;57.632;18.292;2022-09-03T04:01:07;1.00;;;0.50;;
37843;SDS011;23930;57.632;18.292;2022-09-03T04:03:36;0.80;;;0.60;;
37843;SDS011;23930;57.632;18.292;2022-09-03T04:06:04;1.55;;;0.88;;
37843;SDS011;23930;57.632;18.292;2022-09-03T04:08:34;0.60;;;0.60;;
37843;SDS011;23930;57.632;18.292;2022-09-03T04:11:03;0.80;;;0.55;;
37843;SDS011;23930;57.632;18.292;2022-09-03T04:13:36;0.50;;;0.50;;
37843;SDS011;23930;57.632;18.292;2022-09-03T04:16:05;0.40;;;0.40;;
37843;SDS011;23930;57.632;18.292;2022-09-03T04:18:34;0.57;;;0.57;;
37843;SDS011;23930;57.632;18.292;2022-09-03T04:21:03;1.85;;;0.65;;
37843;SDS011;23930;57.632;18.292;2022-09-03T04:23:39;0.85;;;0.75;;
37843;SDS011;23930;57.632;18.292;2022-09-03T04:26:08;1.08;;;0.73;;
37843;SDS011;23930;57.632;18.292;2022-09-03T04:28:37;0.80;;;0.63;;
37843;SDS011;23930;57.632;18.292;2022-09-03T04:31:05;1.05;;;0.95;;
37843;SDS011;23930;57.632;18.292;2022-09-03T04:33:34;4.22;;;1.60;;
37843;SDS011;23930;57.632;18.292;2022-09-03T04:36:04;0.93;;;0.85;;
37843;SDS011;23930;57.632;18.292;2022-09-03T04:38:35;1.48;;;1.38;;
37843;SDS011;23930;57.632;18.292;2022-09-03T04:41:04;0.93;;;0.73;;
37843;SDS011;23930;57.632;18.292;2022-09-03T04:43:33;0.73;;;0.73;;
37843;SDS011;23930;57.632;18.292;2022-09-03T04:46:01;0.80;;;0.80;;
37843;SDS011;23930;57.632;18.292;2022-09-03T04:48:30;0.70;;;0.70;;
37843;SDS011;23930;57.632;18.292;2022-09-03T04:53:38;0.65;;;0.65;;
37843;SDS011;23930;57.632;18.292;2022-09-03T04:56:19;2.72;;;0.98;;
37843;SDS011;23930;57.632;18.292;2022-09-03T04:58:48;1.35;;;0.85;;
37843;SDS011;23930;57.632;18.292;2022-09-03T05:01:21;0.85;;;0.82;;
37843;SDS011;23930;57.632;18.292;2022-09-03T05:03:49;1.48;;;0.80;;
37843;SDS011;23930;57.632;18.292;2022-09-03T05:06:17;0.77;;;0.50;;
37843;SDS011;23930;57.632;18.292;2022-09-03T05:08:48;1.42;;;0.60;;
37843;SDS011;23930;57.632;18.292;2022-09-03T05:11:16;1.95;;;0.98;;
37843;SDS011;23930;57.632;18.292;2022-09-03T05:13:45;1.25;;;1.13;;
37843;SDS011;23930;57.632;18.292;2022-09-03T05:16:14;0.85;;;0.80;;
37843;SDS011;23930;57.632;18.292;2022-09-03T05:18:42;2.67;;;1.10;;
37843;SDS011;23930;57.632;18.292;2022-09-03T05:21:11;2.03;;;1.40;;
37843;SDS011;23930;57.632;18.292;2022-09-03T05:23:44;2.20;;;0.90;;
37843;SDS011;23930;57.632;18.292;2022-09-03T05:26:13;1.67;;;1.08;;
37843;SDS011;23930;57.632;18.292;2022-09-03T05:28:42;2.83;;;1.20;;
37843;SDS011;23930;57.632;18.292;2022-09-03T05:31:13;1.13;;;1.02;;
37843;SDS011;23930;57.632;18.292;2022-09-03T05:33:46;3.85;;;1.00;;
37843;SDS011;23930;57.632;18.292;2022-09-03T05:36:16;1.70;;;1.60;;
37843;SDS011;23930;57.632;18.292;2022-09-03T05:38:45;1.25;;;0.80;;
37843;SDS011;23930;57.632;18.292;2022-09-03T05:41:13;2.60;;;1.08;;
37843;SDS011;23930;57.632;18.292;2022-09-03T05:43:41;1.48;;;0.82;;
37843;SDS011;23930;57.632;18.292;2022-09-03T05:46:12;1.10;;;0.90;;
37843;SDS011;23930;57.632;18.292;2022-09-03T05:48:43;1.42;;;0.90;;
37843;SDS011;23930;57.632;18.292;2022-09-03T05:51:14;1.17;;;1.02;;
37843;SDS011;23930;57.632;18.292;2022-09-03T05:53:43;1.05;;;0.88;;
37843;SDS011;23930;57.632;18.292;2022-09-03T05:56:15;0.77;;;0.73;;
37843;SDS011;23930;57.632;18.292;2022-09-03T05:58:45;1.77;;;0.82;;
37843;SDS011;23930;57.632;18.292;2022-09-03T06:01:15;3.67;;;0.95;;
37843;SDS011;23930;57.632;18.292;2022-09-03T06:03:56;2.83;;;1.10;;
37843;SDS011;23930;57.632;18.292;2022-09-03T06:06:24;1.40;;;0.70;;
37843;SDS011;23930;57.632;18.292;2022-09-03T06:08:56;0.80;;;0.70;;
37843;SDS011;23930;57.632;18.292;2022-09-03T06:11:25;0.60;;;0.60;;
37843;SDS011;23930;57.632;18.292;2022-09-03T06:13:58;1.15;;;0.90;;
37843;SDS011;23930;57.632;18.292;2022-09-03T06:16:31;1.50;;;0.88;;
37843;SDS011;23930;57.632;18.292;2022-09-03T06:18:59;1.77;;;1.15;;
37843;SDS011;23930;57.632;18.292;2022-09-03T06:21:27;0.85;;;0.85;;
37843;SDS011;23930;57.632;18.292;2022-09-03T06:23:55;1.30;;;0.70;;
37843;SDS011;23930;57.632;18.292;2022-09-03T06:26:25;0.82;;;0.75;;
37843;SDS011;23930;57.632;18.292;2022-09-03T06:28:54;2.50;;;1.20;;
37843;SDS011;23930;57.632;18.292;2022-09-03T06:31:23;0.93;;;0.93;;
37843;SDS011;23930;57.632;18.292;2022-09-03T06:33:50;0.90;;;0.90;;
37843;SDS011;23930;57.632;18.292;2022-09-03T06:36:20;0.87;;;0.77;;
37843;SDS011;23930;57.632;18.292;2022-09-03T06:38:50;1.08;;;0.77;;
37843;SDS011;23930;57.632;18.292;2022-09-03T06:41:19;2.05;;;1.23;;
37843;SDS011;23930;57.632;18.292;2022-09-03T06:43:56;0.73;;;0.73;;
37843;SDS011;23930;57.632;18.292;2022-09-03T06:46:32;1.63;;;1.52;;
37843;SDS011;23930;57.632;18.292;2022-09-03T06:49:04;1.83;;;1.30;;
37843;SDS011;23930;57.632;18.292;2022-09-03T06:51:31;1.30;;;1.20;;
37843;SDS011;23930;57.632;18.292;2022-09-03T06:53:59;2.10;;;1.90;;
37843;SDS011;23930;57.632;18.292;2022-09-03T06:56:28;1.53;;;1.43;;
37843;SDS011;23930;57.632;18.292;2022-09-03T06:59:02;1.58;;;1.05;;
37843;SDS011;23930;57.632;18.292;2022-09-03T07:01:31;0.77;;;0.60;;
37843;SDS011;23930;57.632;18.292;2022-09-03T07:04:00;2.58;;;0.90;;
37843;SDS011;23930;57.632;18.292;2022-09-03T07:06:30;1.13;;;0.80;;
37843;SDS011;23930;57.632;18.292;2022-09-03T07:08:59;0.77;;;0.77;;
37843;SDS011;23930;57.632;18.292;2022-09-03T07:11:27;0.88;;;0.60;;
37843;SDS011;23930;57.632;18.292;2022-09-03T07:16:28;1.35;;;0.70;;
37843;SDS011;23930;57.632;18.292;2022-09-03T07:19:00;0.40;;;0.30;;
37843;SDS011;23930;57.632;18.292;2022-09-03T07:21:29;1.08;;;0.60;;
37843;SDS011;23930;57.632;18.292;2022-09-03T07:26:27;0.80;;;0.55;;
37843;SDS011;23930;57.632;18.292;2022-09-03T07:28:56;0.55;;;0.55;;
37843;SDS011;23930;57.632;18.292;2022-09-03T07:31:27;2.05;;;0.80;;
37843;SDS011;23930;57.632;18.292;2022-09-03T07:34:06;1.67;;;0.60;;
37843;SDS011;23930;57.632;18.292;2022-09-03T07:39:04;2.25;;;0.90;;
37843;SDS011;23930;57.632;18.292;2022-09-03T07:41:31;1.75;;;0.68;;
37843;SDS011;23930;57.632;18.292;2022-09-03T07:43:58;2.88;;;1.05;;
37843;SDS011;23930;57.632;18.292;2022-09-03T07:46:31;1.67;;;0.63;;
37843;SDS011;23930;57.632;18.292;2022-09-03T07:49:00;3.33;;;1.10;;
37843;SDS011;23930;57.632;18.292;2022-09-03T07:51:29;2.38;;;0.47;;
37843;SDS011;23930;57.632;18.292;2022-09-03T07:53:58;0.70;;;0.45;;
37843;SDS011;23930;57.632;18.292;2022-09-03T07:56:31;1.55;;;0.40;;
37843;SDS011;23930;57.632;18.292;2022-09-03T07:59:00;0.40;;;0.40;;
37843;SDS011;23930;57.632;18.292;2022-09-03T08:01:28;0.93;;;0.65;;
37843;SDS011;23930;57.632;18.292;2022-09-03T08:03:59;0.52;;;0.35;;
37843;SDS011;23930;57.632;18.292;2022-09-03T08:06:28;0.50;;;0.50;;
37843;SDS011;23930;57.632;18.292;2022-09-03T08:08:56;1.63;;;0.30;;
37843;SDS011;23930;57.632;18.292;2022-09-03T08:11:32;0.70;;;0.20;;
37843;SDS011;23930;57.632;18.292;2022-09-03T08:14:03;0.52;;;0.30;;
37843;SDS011;23930;57.632;18.292;2022-09-03T08:16:42;0.45;;;0.28;;
37843;SDS011;23930;57.632;18.292;2022-09-03T08:19:14;0.40;;;0.30;;
37843;SDS011;23930;57.632;18.292;2022-09-03T08:21:43;1.65;;;0.20;;
37843;SDS011;23930;57.632;18.292;2022-09-03T08:24:11;0.77;;;0.10;;
37843;SDS011;23930;57.632;18.292;2022-09-03T08:26:41;1.05;;;0.20;;
37843;SDS011;23930;57.632;18.292;2022-09-03T08:29:15;0.40;;;0.40;;
37843;SDS011;23930;57.632;18.292;2022-09-03T08:31:42;0.65;;;0.20;;
37843;SDS011;23930;57.632;18.292;2022-09-03T08:34:10;0.40;;;0.10;;
37843;SDS011;23930;57.632;18.292;2022-09-03T08:36:38;0.30;;;0.30;;
37843;SDS011;23930;57.632;18.292;2022-09-03T08:39:09;0.30;;;0.28;;
37843;SDS011;23930;57.632;18.292;2022-09-03T08:52:50;0.28;;;0.17;;
37843;SDS011;23930;57.632;18.292;2022-09-03T08:58:22;0.40;;;0.25;;
37843;SDS011;23930;57.632;18.292;2022-09-03T09:01:03;0.13;;;0.13;;
37843;SDS011;23930;57.632;18.292;2022-09-03T09:17:48;0.73;;;0.50;;
37843;SDS011;23930;57.632;18.292;2022-09-03T09:20:25;0.28;;;0.20;;
37843;SDS011;23930;57.632;18.292;2022-09-03T09:23:17;0.70;;;0.20;;
37843;SDS011;23930;57.632;18.292;2022-09-03T09:25:51;0.20;;;0.20;;
37843;SDS011;23930;57.632;18.292;2022-09-03T09:28:21;0.35;;;0.20;;
37843;SDS011;23930;57.632;18.292;2022-09-03T09:30:52;0.20;;;0.20;;
37843;SDS011;23930;57.632;18.292;2022-09-03T09:35:48;0.20;;;0.10;;
37843;SDS011;23930;57.632;18.292;2022-09-03T09:38:25;0.55;;;0.30;;
37843;SDS011;23930;57.632;18.292;2022-09-03T09:41:06;0.10;;;0.10;;
37843;SDS011;23930;57.632;18.292;2022-09-03T09:43:41;0.43;;;0.40;;
37843;SDS011;23930;57.632;18.292;2022-09-03T09:46:22;0.43;;;0.15;;
37843;SDS011;23930;57.632;18.292;2022-09-03T09:48:53;0.25;;;0.10;;
37843;SDS011;23930;57.632;18.292;2022-09-03T09:51:29;0.17;;;0.17;;
37843;SDS011;23930;57.632;18.292;2022-09-03T09:54:13;0.35;;;0.35;;
37843;SDS011;23930;57.632;18.292;2022-09-03T09:56:46;0.10;;;0.10;;
37843;SDS011;23930;57.632;18.292;2022-09-03T09:59:24;0.10;;;0.10;;
37843;SDS011;23930;57.632;18.292;2022-09-03T10:01:50;0.65;;;0.10;;
37843;SDS011;23930;57.632;18.292;2022-09-03T10:04:32;1.40;;;0.20;;
37843;SDS011;23930;57.632;18.292;2022-09-03T10:07:52;0.22;;;0.15;;
37843;SDS011;23930;57.632;18.292;2022-09-03T10:10:19;0.20;;;0.20;;
37843;SDS011;23930;57.632;18.292;2022-09-03T10:12:57;0.38;;;0.20;;
37843;SDS011;23930;57.632;18.292;2022-09-03T10:15:38;0.10;;;0.10;;
37843;SDS011;23930;57.632;18.292;2022-09-03T10:21:14;1.05;;;0.30;;
37843;SDS011;23930;57.632;18.292;2022-09-03T10:23:55;0.32;;;0.30;;
37843;SDS011;23930;57.632;18.292;2022-09-03T10:26:42;0.10;;;0.10;;
37843;SDS011;23930;57.632;18.292;2022-09-03T10:29:19;0.40;;;0.30;;
37843;SDS011;23930;57.632;18.292;2022-09-03T10:31:59;1.80;;;0.20;;
37843;SDS011;23930;57.632;18.292;2022-09-03T10:37:46;0.20;;;0.20;;
37843;SDS011;23930;57.632;18.292;2022-09-03T10:45:32;0.75;;;0.32;;
37843;SDS011;23930;57.632;18.292;2022-09-03T10:51:14;0.10;;;0.10;;
37843;SDS011;23930;57.632;18.292;2022-09-03T10:59:31;0.10;;;0.10;;
37843;SDS011;23930;57.632;18.292;2022-09-03T11:07:52;0.13;;;0.13;;
37843;SDS011;23930;57.632;18.292;2022-09-03T11:10:29;0.50;;;0.20;;
37843;SDS011;23930;57.632;18.292;2022-09-03T11:13:03;0.22;;;0.22;;
37843;SDS011;23930;57.632;18.292;2022-09-03T11:18:28;0.73;;;0.30;;
37843;SDS011;23930;57.632;18.292;2022-09-03T11:21:05;0.22;;;0.15;;
37843;SDS011;23930;57.632;18.292;2022-09-03T11:23:44;2.95;;;0.35;;
37843;SDS011;23930;57.632;18.292;2022-09-03T11:26:21;0.35;;;0.10;;
37843;SDS011;23930;57.632;18.292;2022-09-03T11:28:59;0.15;;;0.15;;
37843;SDS011;23930;57.632;18.292;2022-09-03T11:43:03;0.20;;;0.20;;
37843;SDS011;23930;57.632;18.292;2022-09-03T11:47:59;1.00;;;0.30;;
37843;SDS011;23930;57.632;18.292;2022-09-03T11:50:27;0.30;;;0.30;;
37843;SDS011;23930;57.632;18.292;2022-09-03T11:53:09;0.70;;;0.70;;
37843;SDS011;23930;57.632;18.292;2022-09-03T11:55:54;0.30;;;0.20;;
37843;SDS011;23930;57.632;18.292;2022-09-03T11:58:28;0.77;;;0.30;;
37843;SDS011;23930;57.632;18.292;2022-09-03T12:01:09;0.40;;;0.10;;
37843;SDS011;23930;57.632;18.292;2022-09-03T12:15:30;0.10;;;0.10;;
37843;SDS011;23930;57.632;18.292;2022-09-03T12:18:21;0.40;;;0.30;;
37843;SDS011;23930;57.632;18.292;2022-09-03T12:23:28;0.75;;;0.20;;
37843;SDS011;23930;57.632;18.292;2022-09-03T12:26:02;0.73;;;0.30;;
37843;SDS011;23930;57.632;18.292;2022-09-03T12:28:34;0.43;;;0.20;;
37843;SDS011;23930;57.632;18.292;2022-09-03T12:31:17;2.40;;;0.28;;
37843;SDS011;23930;57.632;18.292;2022-09-03T12:36:25;1.40;;;0.20;;
37843;SDS011;23930;57.632;18.292;2022-09-03T12:39:24;0.22;;;0.20;;
37843;SDS011;23930;57.632;18.292;2022-09-03T12:42:11;0.40;;;0.30;;
37843;SDS011;23930;57.632;18.292;2022-09-03T12:44:45;0.30;;;0.30;;
37843;SDS011;23930;57.632;18.292;2022-09-03T12:47:13;0.60;;;0.20;;
37843;SDS011;23930;57.632;18.292;2022-09-03T12:50:05;2.22;;;0.30;;
37843;SDS011;23930;57.632;18.292;2022-09-03T12:52:53;1.25;;;0.35;;
37843;SDS011;23930;57.632;18.292;2022-09-03T12:55:26;1.55;;;0.20;;
37843;SDS011;23930;57.632;18.292;2022-09-03T12:58:09;1.00;;;0.28;;
37843;SDS011;23930;57.632;18.292;2022-09-03T13:00:51;0.40;;;0.30;;
37843;SDS011;23930;57.632;18.292;2022-09-03T13:03:23;0.30;;;0.20;;
37843;SDS011;23930;57.632;18.292;2022-09-03T13:06:06;0.25;;;0.25;;
37843;SDS011;23930;57.632;18.292;2022-09-03T13:08:38;0.63;;;0.20;;
37843;SDS011;23930;57.632;18.292;2022-09-03T13:11:13;0.55;;;0.30;;
37843;SDS011;23930;57.632;18.292;2022-09-03T13:13:59;5.05;;;0.22;;
37843;SDS011;23930;57.632;18.292;2022-09-03T13:30:07;2.28;;;0.75;;
37843;SDS011;23930;57.632;18.292;2022-09-03T13:37:47;0.20;;;0.13;;
37843;SDS011;23930;57.632;18.292;2022-09-03T13:46:01;0.65;;;0.20;;
37843;SDS011;23930;57.632;18.292;2022-09-03T13:48:38;0.57;;;0.38;;
37843;SDS011;23930;57.632;18.292;2022-09-03T14:01:44;0.10;;;0.10;;
37843;SDS011;23930;57.632;18.292;2022-09-03T14:04:24;0.75;;;0.30;;
37843;SDS011;23930;57.632;18.292;2022-09-03T14:07:07;0.30;;;0.22;;
37843;SDS011;23930;57.632;18.292;2022-09-03T14:12:46;0.43;;;0.20;;
37843;SDS011;23930;57.632;18.292;2022-09-03T14:15:35;0.20;;;0.20;;
37843;SDS011;23930;57.632;18.292;2022-09-03T14:18:13;0.30;;;0.30;;
37843;SDS011;23930;57.632;18.292;2022-09-03T14:21:06;0.28;;;0.22;;
37843;SDS011;23930;57.632;18.292;2022-09-03T14:26:16;0.40;;;0.40;;
37843;SDS011;23930;57.632;18.292;2022-09-03T14:34:21;0.30;;;0.20;;
37843;SDS011;23930;57.632;18.292;2022-09-03T14:45:42;0.32;;;0.17;;
37843;SDS011;23930;57.632;18.292;2022-09-03T14:48:27;0.20;;;0.20;;
37843;SDS011;23930;57.632;18.292;2022-09-03T15:02:47;0.47;;;0.47;;
37843;SDS011;23930;57.632;18.292;2022-09-03T15:09:08;0.75;;;0.22;;
37843;SDS011;23930;57.632;18.292;2022-09-03T15:11:59;0.35;;;0.30;;
37843;SDS011;23930;57.632;18.292;2022-09-03T15:14:57;0.95;;;0.20;;
37843;SDS011;23930;57.632;18.292;2022-09-03T15:17:42;0.35;;;0.22;;
37843;SDS011;23930;57.632;18.292;2022-09-03T15:23:23;0.20;;;0.20;;
37843;SDS011;23930;57.632;18.292;2022-09-03T15:26:20;1.42;;;0.40;;
37843;SDS011;23930;57.632;18.292;2022-09-03T15:37:10;0.45;;;0.10;;
37843;SDS011;23930;57.632;18.292;2022-09-03T15:39:45;0.30;;;0.22;;
37843;SDS011;23930;57.632;18.292;2022-09-03T15:42:25;0.50;;;0.30;;
37843;SDS011;23930;57.632;18.292;2022-09-03T15:44:55;0.60;;;0.40;;
37843;SDS011;23930;57.632;18.292;2022-09-03T15:47:32;0.60;;;0.50;;
37843;SDS011;23930;57.632;18.292;2022-09-03T15:50:24;0.10;;;0.10;;
37843;SDS011;23930;57.632;18.292;2022-09-03T15:53:05;0.30;;;0.30;;
37843;SDS011;23930;57.632;18.292;2022-09-03T16:01:35;0.75;;;0.45;;
37843;SDS011;23930;57.632;18.292;2022-09-03T16:07:04;0.20;;;0.10;;
37843;SDS011;23930;57.632;18.292;2022-09-03T16:16:02;0.40;;;0.30;;
37843;SDS011;23930;57.632;18.292;2022-09-03T16:18:36;1.08;;;0.73;;
37843;SDS011;23930;57.632;18.292;2022-09-03T16:23:59;0.68;;;0.68;;
37843;SDS011;23930;57.632;18.292;2022-09-03T16:26:41;0.70;;;0.40;;
37843;SDS011;23930;57.632;18.292;2022-09-03T16:29:26;1.27;;;1.15;;
37843;SDS011;23930;57.632;18.292;2022-09-03T16:50:12;3.95;;;1.30;;
37843;SDS011;23930;57.632;18.292;2022-09-03T16:58:22;0.65;;;0.40;;
37843;SDS011;23930;57.632;18.292;2022-09-03T17:11:31;0.93;;;0.60;;
37843;SDS011;23930;57.632;18.292;2022-09-03T17:17:02;0.57;;;0.55;;
37843;SDS011;23930;57.632;18.292;2022-09-03T17:19:45;0.82;;;0.60;;
37843;SDS011;23930;57.632;18.292;2022-09-03T17:22:59;1.60;;;0.60;;
37843;SDS011;23930;57.632;18.292;2022-09-03T17:25:36;1.50;;;0.65;;
37843;SDS011;23930;57.632;18.292;2022-09-03T17:30:42;0.90;;;0.75;;
37843;SDS011;23930;57.632;18.292;2022-09-03T17:33:34;1.70;;;1.02;;
37843;SDS011;23930;57.632;18.292;2022-09-03T17:36:14;1.58;;;1.15;;
37843;SDS011;23930;57.632;18.292;2022-09-03T17:41:42;1.92;;;0.80;;
37843;SDS011;23930;57.632;18.292;2022-09-03T17:49:42;0.90;;;0.70;;
37843;SDS011;23930;57.632;18.292;2022-09-03T17:52:34;1.15;;;0.82;;
37843;SDS011;23930;57.632;18.292;2022-09-03T17:55:14;1.55;;;1.13;;
37843;SDS011;23930;57.632;18.292;2022-09-03T17:57:56;1.88;;;0.85;;
37843;SDS011;23930;57.632;18.292;2022-09-03T18:00:41;1.10;;;0.80;;
37843;SDS011;23930;57.632;18.292;2022-09-03T18:03:24;0.80;;;0.80;;
37843;SDS011;23930;57.632;18.292;2022-09-03T18:06:00;1.50;;;1.40;;
37843;SDS011;23930;57.632;18.292;2022-09-03T18:08:42;2.97;;;0.88;;
37843;SDS011;23930;57.632;18.292;2022-09-03T18:11:18;0.77;;;0.77;;
37843;SDS011;23930;57.632;18.292;2022-09-03T18:16:48;0.52;;;0.50;;
37843;SDS011;23930;57.632;18.292;2022-09-03T18:19:34;0.85;;;0.60;;
37843;SDS011;23930;57.632;18.292;2022-09-03T18:22:36;0.90;;;0.88;;
37843;SDS011;23930;57.632;18.292;2022-09-03T18:25:31;2.28;;;0.73;;
37843;SDS011;23930;57.632;18.292;2022-09-03T18:28:22;2.75;;;0.80;;
37843;SDS011;23930;57.632;18.292;2022-09-03T18:31:19;2.53;;;1.07;;
37843;SDS011;23930;57.632;18.292;2022-09-03T18:34:06;1.58;;;0.93;;
37843;SDS011;23930;57.632;18.292;2022-09-03T18:36:53;1.02;;;0.70;;
37843;SDS011;23930;57.632;18.292;2022-09-03T18:39:43;2.03;;;0.60;;
37843;SDS011;23930;57.632;18.292;2022-09-03T18:58:23;0.73;;;0.40;;
37843;SDS011;23930;57.632;18.292;2022-09-03T19:05:18;1.35;;;0.60;;
37843;SDS011;23930;57.632;18.292;2022-09-03T19:07:50;0.43;;;0.40;;
37843;SDS011;23930;57.632;18.292;2022-09-03T19:10:47;1.02;;;0.63;;
37843;SDS011;23930;57.632;18.292;2022-09-03T19:13:35;0.80;;;0.73;;
37843;SDS011;23930;57.632;18.292;2022-09-03T19:19:52;1.17;;;0.80;;
37843;SDS011;23930;57.632;18.292;2022-09-03T19:22:49;0.80;;;0.70;;
37843;SDS011;23930;57.632;18.292;2022-09-03T19:25:34;0.75;;;0.75;;
37843;SDS011;23930;57.632;18.292;2022-09-03T19:28:24;1.55;;;0.75;;
37843;SDS011;23930;57.632;18.292;2022-09-03T19:46:50;2.97;;;0.82;;
37843;SDS011;23930;57.632;18.292;2022-09-03T19:53:00;1.35;;;0.85;;
37843;SDS011;23930;57.632;18.292;2022-09-03T19:55:53;0.98;;;0.50;;
37843;SDS011;23930;57.632;18.292;2022-09-03T19:58:42;0.95;;;0.60;;
37843;SDS011;23930;57.632;18.292;2022-09-03T20:01:32;1.05;;;0.65;;
37843;SDS011;23930;57.632;18.292;2022-09-03T20:04:30;2.40;;;0.80;;
37843;SDS011;23930;57.632;18.292;2022-09-03T20:07:25;1.17;;;0.70;;
37843;SDS011;23930;57.632;18.292;2022-09-03T20:10:12;1.13;;;0.77;;
37843;SDS011;23930;57.632;18.292;2022-09-03T20:12:55;1.77;;;0.90;;
37843;SDS011;23930;57.632;18.292;2022-09-03T20:15:25;2.05;;;0.70;;
37843;SDS011;23930;57.632;18.292;2022-09-03T20:18:07;1.00;;;0.77;;
37843;SDS011;23930;57.632;18.292;2022-09-03T20:20:47;3.08;;;0.63;;
37843;SDS011;23930;57.632;18.292;2022-09-03T20:23:32;3.97;;;0.80;;
37843;SDS011;23930;57.632;18.292;2022-09-03T20:26:22;0.80;;;0.80;;
37843;SDS011;23930;57.632;18.292;2022-09-03T20:32:17;1.00;;;1.00;;
37843;SDS011;23930;57.632;18.292;2022-09-03T20:35:24;1.42;;;0.80;;
37843;SDS011;23930;57.632;18.292;2022-09-03T20:44:15;1.92;;;0.68;;
37843;SDS011;23930;57.632;18.292;2022-09-03T20:52:34;0.75;;;0.50;;
37843;SDS011;23930;57.632;18.292;2022-09-03T20:55:27;0.85;;;0.55;;
37843;SDS011;23930;57.632;18.292;2022-09-03T20:58:07;0.88;;;0.63;;
37843;SDS011;23930;57.632;18.292;2022-09-03T21:01:04;1.50;;;0.85;;
37843;SDS011;23930;57.632;18.292;2022-09-03T21:03:48;7.82;;;1.00;;
37843;SDS011;23930;57.632;18.292;2022-09-03T21:06:32;2.55;;;1.08;;
37843;SDS011;23930;57.632;18.292;2022-09-03T21:14:40;3.65;;;0.90;;
37843;SDS011;23930;57.632;18.292;2022-09-03T21:17:26;4.70;;;1.38;;
37843;SDS011;23930;57.632;18.292;2022-09-03T21:20:12;2.13;;;1.08;;
37843;SDS011;23930;57.632;18.292;2022-09-03T21:22:56;1.25;;;0.98;;
37843;SDS011;23930;57.632;18.292;2022-09-03T21:25:28;1.30;;;0.80;;
37843;SDS011;23930;57.632;18.292;2022-09-03T21:28:02;1.25;;;0.80;;
37843;SDS011;23930;57.632;18.292;2022-09-03T21:30:46;2.05;;;0.90;;
37843;SDS011;23930;57.632;18.292;2022-09-03T21:33:19;4.40;;;0.80;;
37843;SDS011;23930;57.632;18.292;2022-09-03T21:38:46;1.58;;;1.17;;
37843;SDS011;23930;57.632;18.292;2022-09-03T21:41:25;0.88;;;0.50;;
37843;SDS011;23930;57.632;18.292;2022-09-03T21:44:16;0.70;;;0.70;;